Time;durP1;ratioP1;P1;durP2;ratioP2;P2;SDS_P1;SDS_P2;PMS_P1;PMS_P2;Temp;Humidity;BMP_temperature;BMP_pressure;BME280_temperature;BME280_humidity;BME280_pressure;Samples;Min_cycle;Max_cycle;Signal;HPM_P1;HPM_P2
2021/09/23 00:00:20;;;;;;;10.37;5.60;;;14.30;99.90;;;;;;5015842;28;20407;-79
2021/09/23 00:02:49;;;;;;;9.93;4.97;;;14.30;99.90;;;;;;4998350;28;20417;-79
2021/09/23 00:05:24;;;;;;;9.30;4.97;;;14.20;99.90;;;;;;5015517;28;20434;-79
2021/09/23 00:07:52;;;;;;;7.18;5.30;;;14.20;99.90;;;;;;5015364;28;20937;-79
2021/09/23 00:10:29;;;;;;;6.57;5.07;;;14.20;99.90;;;;;;5015781;28;20189;-79
2021/09/23 00:12:56;;;;;;;6.30;4.15;;;14.10;99.90;;;;;;5015251;28;20418;-78
2021/09/23 00:15:22;;;;;;;6.60;4.63;;;14.10;99.90;;;;;;5014103;28;20199;-78
2021/09/23 00:17:51;;;;;;;8.37;4.57;;;14.20;99.90;;;;;;4998192;28;20508;-80
2021/09/23 00:20:22;;;;;;;5.80;3.95;;;14.20;99.90;;;;;;5015618;28;20500;-79
2021/09/23 00:22:48;;;;;;;6.30;4.57;;;14.10;99.90;;;;;;5014018;28;20586;-79
2021/09/23 00:25:14;;;;;;;12.33;5.17;;;14.00;99.90;;;;;;5015121;28;20448;-79
2021/09/23 00:27:40;;;;;;;7.03;4.47;;;14.00;99.90;;;;;;5015904;28;20189;-79
2021/09/23 00:30:07;;;;;;;7.63;5.35;;;13.90;99.90;;;;;;5014878;28;20178;-79
2021/09/23 00:32:33;;;;;;;9.00;5.37;;;13.90;99.90;;;;;;5017923;28;20171;-80
2021/09/23 00:34:59;;;;;;;7.07;4.30;;;13.90;99.90;;;;;;5019320;28;20428;-79
2021/09/23 00:37:25;;;;;;;7.37;4.83;;;13.90;99.90;;;;;;5019453;28;20469;-80
2021/09/23 00:39:50;;;;;;;7.00;4.67;;;13.90;99.90;;;;;;5001415;28;20185;-79
2021/09/23 00:42:16;;;;;;;9.37;6.00;;;13.90;99.90;;;;;;5018991;28;20174;-80
2021/09/23 00:44:59;;;;;;;12.10;4.63;;;13.80;99.90;;;;;;5017298;28;20281;-79
2021/09/23 00:47:26;;;;;;;14.07;6.13;;;13.80;99.90;;;;;;5018572;28;20223;-79
2021/09/23 00:49:51;;;;;;;7.13;5.05;;;13.80;99.90;;;;;;5001172;28;20201;-79
2021/09/23 00:52:20;;;;;;;7.00;5.17;;;13.80;99.90;;;;;;5018840;28;20182;-79
2021/09/23 00:54:49;;;;;;;8.43;6.25;;;13.70;99.90;;;;;;5018189;28;20189;-79
2021/09/23 00:57:17;;;;;;;7.80;4.70;;;13.70;99.90;;;;;;5018998;28;20179;-80
2021/09/23 00:59:44;;;;;;;18.42;5.60;;;13.70;99.90;;;;;;5017093;28;20288;-78
2021/09/23 01:02:10;;;;;;;6.75;5.28;;;13.70;99.90;;;;;;5016713;28;20229;-79
2021/09/23 01:04:35;;;;;;;7.93;4.93;;;13.70;99.90;;;;;;5016425;28;20626;-79
2021/09/23 01:07:01;;;;;;;10.83;6.67;;;13.80;99.90;;;;;;5017612;28;20444;-79
2021/09/23 01:09:27;;;;;;;8.57;5.53;;;13.80;99.90;;;;;;5017624;28;20179;-79
2021/09/23 01:11:52;;;;;;;10.73;5.70;;;13.70;99.90;;;;;;5018839;28;20224;-79
2021/09/23 01:14:18;;;;;;;7.90;4.97;;;13.70;99.90;;;;;;5018995;28;20182;-80
2021/09/23 01:16:46;;;;;;;13.50;5.67;;;13.70;99.90;;;;;;5019017;28;20209;-79
2021/09/23 01:19:11;;;;;;;15.65;5.82;;;13.60;99.90;;;;;;5018007;28;20292;-80
2021/09/23 01:21:43;;;;;;;9.60;5.80;;;13.70;99.90;;;;;;5018785;28;20197;-80
2021/09/23 01:24:11;;;;;;;15.55;6.57;;;13.70;99.90;;;;;;5016911;28;20206;-79
2021/09/23 01:26:36;;;;;;;13.75;6.97;;;13.70;99.90;;;;;;5017701;28;20202;-79
2021/09/23 01:29:02;;;;;;;8.57;6.13;;;13.70;99.90;;;;;;5017680;28;20570;-81
2021/09/23 01:31:28;;;;;;;9.37;5.67;;;13.70;99.90;;;;;;5017384;28;20175;-80
2021/09/23 01:33:53;;;;;;;11.70;6.50;;;13.60;99.90;;;;;;5018881;28;20479;-80
2021/09/23 01:36:19;;;;;;;7.70;5.60;;;13.60;99.90;;;;;;5017289;28;20220;-80
2021/09/23 01:38:45;;;;;;;10.57;6.47;;;13.60;99.90;;;;;;5017689;28;20178;-80
2021/09/23 01:41:11;;;;;;;8.53;6.50;;;13.60;99.90;;;;;;5018904;28;20177;-80
2021/09/23 01:43:37;;;;;;;8.38;6.55;;;13.60;99.90;;;;;;5018396;28;20174;-81
2021/09/23 01:46:02;;;;;;;9.10;6.00;;;13.60;99.90;;;;;;5019060;28;20204;-80
2021/09/23 01:48:28;;;;;;;13.70;6.90;;;13.60;99.90;;;;;;5018994;28;20460;-80
2021/09/23 01:50:53;;;;;;;11.83;5.83;;;13.60;99.90;;;;;;5019144;28;20668;-80
2021/09/23 01:53:19;;;;;;;13.97;6.57;;;13.60;99.90;;;;;;5001438;28;20200;-80
2021/09/23 01:55:44;;;;;;;10.07;6.37;;;13.60;99.90;;;;;;5019820;28;20209;-80
2021/09/23 01:58:10;;;;;;;10.40;6.13;;;13.60;99.90;;;;;;5019616;28;20194;-80
2021/09/23 02:00:35;;;;;;;11.10;6.67;;;13.60;99.90;;;;;;5001576;28;20704;-80
2021/09/23 02:03:01;;;;;;;14.63;7.80;;;13.60;99.90;;;;;;5019487;28;20267;-80
2021/09/23 02:05:27;;;;;;;8.70;5.90;;;13.60;99.90;;;;;;5019078;28;20198;-80
2021/09/23 02:07:52;;;;;;;10.20;6.33;;;13.60;99.90;;;;;;5019412;28;20181;-80
2021/09/23 02:10:18;;;;;;;10.50;6.97;;;13.50;99.90;;;;;;5022319;28;20210;-79
2021/09/23 02:12:43;;;;;;;11.80;7.70;;;13.50;99.90;;;;;;5023971;28;20178;-80
2021/09/23 02:15:10;;;;;;;10.03;6.87;;;13.50;99.90;;;;;;5018002;28;20218;-79
2021/09/23 02:17:35;;;;;;;11.75;6.85;;;13.50;99.90;;;;;;5016044;28;20174;-80
2021/09/23 02:20:02;;;;;;;10.13;6.33;;;13.60;99.90;;;;;;5015763;28;20688;-78
2021/09/23 02:22:27;;;;;;;14.05;7.68;;;13.50;99.90;;;;;;5015538;28;20409;-78
2021/09/23 02:24:53;;;;;;;11.13;7.40;;;13.50;99.90;;;;;;5015277;28;20566;-79
2021/09/23 02:27:19;;;;;;;9.97;7.37;;;13.50;99.90;;;;;;5016743;28;20273;-78
2021/09/23 02:29:45;;;;;;;9.18;7.13;;;13.40;99.90;;;;;;5015864;28;20316;-78
2021/09/23 02:32:11;;;;;;;12.13;6.53;;;13.40;99.90;;;;;;5015946;28;20612;-80
2021/09/23 02:34:36;;;;;;;11.07;7.03;;;13.40;99.90;;;;;;5012927;28;20185;-77
2021/09/23 02:37:02;;;;;;;9.70;6.60;;;13.40;99.90;;;;;;5014398;28;20206;-78
2021/09/23 02:39:28;;;;;;;12.40;7.33;;;13.40;99.90;;;;;;5014190;28;21046;-78
2021/09/23 02:41:54;;;;;;;22.53;8.63;;;13.50;99.90;;;;;;5015187;28;20409;-79
2021/09/23 02:44:19;;;;;;;10.80;7.87;;;13.50;99.90;;;;;;4997790;28;20232;-78
2021/09/23 02:46:45;;;;;;;10.80;7.00;;;13.50;99.90;;;;;;5014476;28;20201;-79
2021/09/23 02:49:11;;;;;;;10.23;7.13;;;13.50;99.90;;;;;;5014827;28;20182;-78
2021/09/23 02:51:37;;;;;;;12.73;8.10;;;13.50;99.90;;;;;;5015104;28;20537;-78
2021/09/23 02:54:02;;;;;;;11.38;7.93;;;13.50;99.90;;;;;;5014983;28;20174;-78
2021/09/23 02:56:31;;;;;;;10.13;8.37;;;13.50;99.90;;;;;;5015964;28;20222;-78
2021/09/23 02:58:56;;;;;;;19.05;7.95;;;13.40;99.90;;;;;;5016691;28;20256;-78
2021/09/23 03:01:22;;;;;;;11.90;8.30;;;13.30;99.90;;;;;;5018460;28;20190;-79
2021/09/23 03:03:48;;;;;;;16.27;8.53;;;13.30;99.90;;;;;;5018949;28;20257;-78
2021/09/23 03:06:15;;;;;;;10.60;7.70;;;13.30;99.90;;;;;;5018950;28;20468;-78
2021/09/23 03:08:41;;;;;;;16.02;8.13;;;13.30;99.90;;;;;;5015015;28;20220;-78
2021/09/23 03:11:07;;;;;;;12.93;8.57;;;13.40;99.90;;;;;;5014822;28;20174;-78
2021/09/23 03:13:32;;;;;;;14.23;7.78;;;13.50;99.90;;;;;;5015131;28;20562;-80
2021/09/23 03:15:59;;;;;;;13.30;7.40;;;13.50;99.90;;;;;;5016510;28;20206;-79
2021/09/23 03:18:24;;;;;;;10.60;7.20;;;13.50;99.90;;;;;;5016051;28;20182;-79
2021/09/23 03:20:50;;;;;;;14.73;8.70;;;13.50;99.90;;;;;;5015722;28;20201;-79
2021/09/23 03:23:16;;;;;;;16.80;8.47;;;13.50;99.90;;;;;;5016665;28;20166;-79
2021/09/23 03:25:43;;;;;;;15.27;7.65;;;13.50;99.90;;;;;;5015395;28;20198;-79
2021/09/23 03:28:08;;;;;;;13.68;7.97;;;13.50;99.90;;;;;;5015116;28;20178;-79
2021/09/23 03:30:35;;;;;;;14.20;7.93;;;13.50;99.90;;;;;;5016385;28;20637;-79
2021/09/23 03:33:05;;;;;;;14.55;8.23;;;13.50;99.90;;;;;;5014723;28;20210;-80
2021/09/23 03:35:32;;;;;;;13.55;8.52;;;13.40;99.90;;;;;;5016352;28;20550;-80
2021/09/23 03:37:58;;;;;;;16.20;9.68;;;13.30;99.90;;;;;;5016192;28;20538;-80
2021/09/23 03:40:24;;;;;;;13.00;8.80;;;13.20;99.90;;;;;;5016012;28;20190;-79
2021/09/23 03:42:49;;;;;;;16.90;10.17;;;13.20;99.90;;;;;;5014187;28;20260;-80
2021/09/23 03:45:15;;;;;;;15.30;9.70;;;13.10;99.90;;;;;;5015037;28;20443;-80
2021/09/23 03:47:40;;;;;;;16.40;10.10;;;13.20;99.90;;;;;;5012896;28;20206;-78
2021/09/23 03:50:07;;;;;;;17.33;8.97;;;13.20;99.90;;;;;;5012341;28;20186;-77
2021/09/23 03:52:32;;;;;;;12.73;8.85;;;13.20;99.90;;;;;;5015800;28;20184;-79
2021/09/23 03:54:58;;;;;;;14.73;8.40;;;13.30;99.90;;;;;;5012842;28;20233;-79
2021/09/23 03:57:27;;;;;;;17.90;9.90;;;13.20;99.90;;;;;;5013760;28;20194;-80
2021/09/23 03:59:53;;;;;;;18.20;10.20;;;13.20;99.90;;;;;;5014743;28;20239;-79
2021/09/23 04:02:19;;;;;;;22.70;10.60;;;13.20;99.90;;;;;;5015096;28;20166;-79
2021/09/23 04:04:45;;;;;;;16.02;9.82;;;13.30;99.90;;;;;;5015038;28;20659;-78
2021/09/23 04:07:10;;;;;;;13.70;10.20;;;13.30;99.90;;;;;;5019963;28;20217;-79
2021/09/23 04:09:36;;;;;;;14.53;9.03;;;13.30;99.90;;;;;;5019921;28;20557;-79
2021/09/23 04:12:02;;;;;;;13.33;9.57;;;13.40;99.90;;;;;;5017797;28;20178;-79
2021/09/23 04:14:27;;;;;;;15.00;9.93;;;13.40;99.90;;;;;;5018382;28;20193;-79
2021/09/23 04:16:53;;;;;;;16.67;10.20;;;13.40;99.90;;;;;;5018913;28;20225;-78
2021/09/23 04:19:19;;;;;;;17.90;10.50;;;13.40;99.90;;;;;;5020285;28;20213;-79
2021/09/23 04:21:45;;;;;;;18.90;9.80;;;13.40;99.90;;;;;;5019865;28;20182;-79
2021/09/23 04:24:10;;;;;;;20.30;11.23;;;13.30;99.90;;;;;;5018662;28;20456;-80
2021/09/23 04:26:36;;;;;;;17.47;11.43;;;13.20;99.90;;;;;;5020388;28;20194;-79
2021/09/23 04:29:02;;;;;;;17.03;10.27;;;13.20;99.90;;;;;;5018533;28;20196;-79
2021/09/23 04:31:27;;;;;;;24.77;10.57;;;13.30;99.90;;;;;;5019200;28;20174;-79
2021/09/23 04:33:53;;;;;;;18.43;9.30;;;13.30;99.90;;;;;;5019723;28;20764;-79
2021/09/23 04:36:23;;;;;;;20.83;11.00;;;13.30;99.90;;;;;;5020356;28;20208;-80
2021/09/23 04:38:48;;;;;;;21.00;10.35;;;13.20;99.90;;;;;;5017932;28;20417;-80
2021/09/23 04:41:14;;;;;;;14.80;9.63;;;13.10;99.90;;;;;;5017410;28;20186;-79
2021/09/23 04:43:41;;;;;;;20.00;10.93;;;13.10;99.90;;;;;;5018652;28;20177;-79
2021/09/23 04:46:08;;;;;;;22.55;11.52;;;13.10;99.90;;;;;;5018995;28;20669;-78
2021/09/23 04:48:34;;;;;;;16.85;9.85;;;13.10;99.90;;;;;;5018411;28;20186;-78
2021/09/23 04:51:00;;;;;;;17.33;10.50;;;13.20;99.90;;;;;;5018479;28;20569;-79
2021/09/23 04:53:26;;;;;;;16.60;10.27;;;13.20;99.90;;;;;;5016447;28;20178;-79
2021/09/23 04:55:51;;;;;;;19.63;11.70;;;13.30;99.90;;;;;;5016746;28;20303;-79
2021/09/23 04:58:17;;;;;;;15.20;9.77;;;13.40;99.90;;;;;;5045029;28;20169;-79
2021/09/23 05:00:45;;;;;;;23.17;12.07;;;13.30;99.90;;;;;;5034027;28;20185;-79
2021/09/23 05:03:13;;;;;;;16.90;10.65;;;13.20;99.90;;;;;;5017327;28;20185;-79
2021/09/23 05:05:39;;;;;;;20.58;10.40;;;13.20;99.90;;;;;;5030786;28;20632;-80
2021/09/23 05:08:05;;;;;;;21.63;11.70;;;13.10;99.90;;;;;;5036599;28;20264;-79
2021/09/23 05:10:34;;;;;;;18.63;10.18;;;13.10;99.90;;;;;;5036464;28;20170;-80
2021/09/23 05:13:02;;;;;;;21.58;12.00;;;13.00;99.90;;;;;;5035632;28;20177;-79
2021/09/23 05:15:28;;;;;;;19.52;11.48;;;12.90;99.90;;;;;;5023972;28;20202;-78
2021/09/23 05:17:54;;;;;;;18.27;10.80;;;12.90;99.90;;;;;;5016312;28;20254;-79
2021/09/23 05:20:20;;;;;;;21.50;11.30;;;12.90;99.90;;;;;;5000342;28;20811;-80
2021/09/23 05:22:45;;;;;;;18.13;11.40;;;13.00;99.90;;;;;;5017311;28;20642;-79
2021/09/23 05:25:11;;;;;;;19.90;11.00;;;13.00;99.90;;;;;;5018728;28;20205;-77
2021/09/23 05:27:38;;;;;;;24.37;12.73;;;13.10;99.90;;;;;;5016258;28;20178;-78
2021/09/23 05:30:06;;;;;;;20.90;13.32;;;13.20;99.90;;;;;;5021298;28;20412;-77
2021/09/23 05:32:32;;;;;;;23.65;13.35;;;13.30;99.90;;;;;;5033434;28;20187;-78
2021/09/23 05:34:57;;;;;;;17.53;10.83;;;13.40;99.90;;;;;;4998300;28;20305;-78
2021/09/23 05:37:23;;;;;;;24.17;14.07;;;13.40;99.90;;;;;;5025857;28;20669;-77
2021/09/23 05:39:48;;;;;;;19.50;11.30;;;13.40;99.90;;;;;;5028794;28;20192;-78
2021/09/23 05:42:17;;;;;;;22.20;11.70;;;13.50;99.90;;;;;;5029645;28;20183;-78
2021/09/23 05:44:42;;;;;;;20.50;11.88;;;13.50;99.90;;;;;;5034983;28;20169;-80
2021/09/23 05:47:08;;;;;;;17.67;10.70;;;13.60;99.90;;;;;;5034202;28;20788;-79
2021/09/23 05:49:34;;;;;;;18.37;11.13;;;13.60;99.90;;;;;;5037048;28;20613;-80
2021/09/23 05:51:59;;;;;;;21.50;11.00;;;13.70;99.90;;;;;;5035110;28;20199;-80
2021/09/23 05:54:26;;;;;;;24.23;12.10;;;13.70;99.90;;;;;;5030096;28;20176;-80
2021/09/23 05:56:52;;;;;;;19.50;11.45;;;13.70;99.90;;;;;;5015764;28;20202;-79
2021/09/23 05:59:18;;;;;;;22.07;12.07;;;13.70;99.90;;;;;;4998603;28;20308;-79
2021/09/23 06:01:44;;;;;;;23.10;12.30;;;13.80;99.90;;;;;;5027759;28;20178;-78
2021/09/23 06:04:10;;;;;;;24.63;11.88;;;13.80;99.90;;;;;;5032902;28;20181;-79
2021/09/23 06:06:35;;;;;;;17.40;10.17;;;13.80;99.90;;;;;;5029063;28;20203;-80
2021/09/23 06:09:03;;;;;;;19.73;11.53;;;13.80;99.90;;;;;;5014726;28;20425;-81
2021/09/23 06:11:29;;;;;;;24.25;12.25;;;13.70;99.90;;;;;;5027301;28;20205;-82
2021/09/23 06:13:55;;;;;;;23.30;12.23;;;13.70;99.90;;;;;;5017079;28;20175;-82
2021/09/23 06:16:20;;;;;;;23.63;11.87;;;13.80;99.90;;;;;;5030073;28;20456;-81
2021/09/23 06:18:46;;;;;;;19.93;12.87;;;13.90;99.90;;;;;;5037033;28;20436;-80
2021/09/23 06:21:11;;;;;;;23.37;11.57;;;13.90;99.90;;;;;;5035576;28;20181;-81
2021/09/23 06:23:37;;;;;;;17.30;10.43;;;13.90;99.90;;;;;;5035484;28;20166;-81
2021/09/23 06:26:03;;;;;;;21.90;11.75;;;13.90;99.90;;;;;;5035888;28;20194;-81
2021/09/23 06:28:30;;;;;;;22.07;11.63;;;14.00;99.90;;;;;;5036163;28;20704;-84
2021/09/23 06:30:57;;;;;;;24.40;11.82;;;13.90;99.90;;;;;;5036929;28;20243;-80
2021/09/23 06:33:22;;;;;;;19.37;13.53;;;14.00;99.90;;;;;;5036271;28;20196;-80
2021/09/23 06:35:49;;;;;;;27.57;13.67;;;14.00;99.90;;;;;;5036235;28;21082;-80
2021/09/23 06:38:14;;;;;;;22.90;13.65;;;14.10;99.90;;;;;;5034726;28;20185;-79
2021/09/23 06:40:40;;;;;;;23.40;13.00;;;14.20;99.90;;;;;;5035950;28;20173;-78
2021/09/23 06:43:06;;;;;;;20.57;12.03;;;14.20;99.90;;;;;;5033073;28;20639;-79
2021/09/23 06:45:31;;;;;;;19.70;13.03;;;14.30;99.90;;;;;;5035109;28;20226;-79
2021/09/23 06:47:57;;;;;;;31.13;12.43;;;14.60;99.90;;;;;;5019089;28;20490;-79
2021/09/23 06:50:23;;;;;;;22.67;11.87;;;14.60;99.90;;;;;;5037152;28;20181;-80
2021/09/23 06:52:48;;;;;;;23.27;13.03;;;14.70;99.90;;;;;;5041697;28;20235;-78
2021/09/23 06:55:14;;;;;;;20.67;12.23;;;14.90;99.90;;;;;;5024491;28;20206;-79
2021/09/23 06:57:40;;;;;;;26.30;14.07;;;14.90;99.90;;;;;;5038169;28;20179;-80
2021/09/23 07:00:07;;;;;;;21.80;13.40;;;15.10;99.90;;;;;;5035465;28;20177;-79
2021/09/23 07:02:32;;;;;;;25.07;13.73;;;15.30;99.90;;;;;;5030431;28;20415;-79
2021/09/23 07:04:58;;;;;;;28.07;13.27;;;15.20;99.90;;;;;;4999657;28;20486;-80
2021/09/23 07:07:23;;;;;;;23.33;13.63;;;15.20;99.90;;;;;;5029541;28;20659;-80
2021/09/23 07:09:49;;;;;;;25.60;14.50;;;15.40;99.90;;;;;;5035592;28;20184;-79
2021/09/23 07:12:15;;;;;;;19.87;12.93;;;15.30;99.90;;;;;;5022448;28;20173;-79
2021/09/23 07:14:40;;;;;;;22.43;12.97;;;15.20;99.90;;;;;;5035098;28;20172;-80
2021/09/23 07:17:06;;;;;;;24.67;12.23;;;15.10;99.90;;;;;;5029771;28;20205;-79
2021/09/23 07:19:32;;;;;;;25.60;15.00;;;15.10;99.90;;;;;;5015075;28;20679;-79
2021/09/23 07:21:58;;;;;;;19.27;12.10;;;15.00;99.90;;;;;;5015440;28;20180;-79
2021/09/23 07:24:24;;;;;;;23.00;13.53;;;15.00;99.90;;;;;;5031269;28;20184;-79
2021/09/23 07:26:52;;;;;;;26.30;15.73;;;15.30;99.90;;;;;;5015828;28;20473;-79
2021/09/23 07:29:18;;;;;;;25.80;16.13;;;15.40;99.90;;;;;;5031174;28;20842;-79
2021/09/23 07:31:44;;;;;;;27.60;16.03;;;15.30;99.90;;;;;;5015291;28;20413;-80
2021/09/23 07:34:11;;;;;;;27.63;14.60;;;15.20;99.90;;;;;;5017028;28;20413;-79
2021/09/23 07:36:37;;;;;;;25.07;14.97;;;15.30;99.90;;;;;;5018784;28;20507;-80
2021/09/23 07:39:08;;;;;;;26.87;15.37;;;15.40;99.90;;;;;;5027729;28;20426;-79
2021/09/23 07:41:39;;;;;;;24.57;14.73;;;15.40;99.90;;;;;;5037233;28;20190;-80
2021/09/23 07:44:06;;;;;;;24.70;15.73;;;15.30;99.90;;;;;;5035202;28;20510;-80
2021/09/23 07:46:33;;;;;;;24.73;16.00;;;15.30;99.90;;;;;;5021799;28;20437;-79
2021/09/23 07:48:58;;;;;;;24.87;15.07;;;15.40;99.90;;;;;;5021720;28;20492;-80
2021/09/23 07:51:24;;;;;;;29.50;14.73;;;15.40;99.90;;;;;;5036565;28;20446;-79
2021/09/23 07:53:49;;;;;;;29.57;15.20;;;15.40;99.90;;;;;;5037826;28;20190;-80
2021/09/23 07:56:15;;;;;;;25.50;15.10;;;15.50;99.90;;;;;;5036432;28;20205;-80
2021/09/23 07:58:41;;;;;;;22.50;13.80;;;15.50;99.90;;;;;;5036432;28;20854;-79
2021/09/23 08:01:08;;;;;;;26.57;14.53;;;15.70;99.90;;;;;;5026928;28;20213;-78
2021/09/23 08:03:33;;;;;;;29.30;16.50;;;15.80;99.90;;;;;;5016581;28;20174;-79
2021/09/23 08:05:59;;;;;;;21.93;15.83;;;15.90;99.90;;;;;;5012137;28;20474;-79
2021/09/23 08:08:24;;;;;;;29.87;15.43;;;15.90;99.90;;;;;;5017908;28;20202;-78
2021/09/23 08:10:50;;;;;;;30.37;16.27;;;15.90;99.90;;;;;;5025569;28;20209;-80
2021/09/23 08:13:16;;;;;;;24.63;14.80;;;16.00;99.90;;;;;;5021860;28;20174;-78
2021/09/23 08:15:42;;;;;;;23.17;14.37;;;16.00;99.90;;;;;;5019270;28;20311;-78
2021/09/23 08:18:08;;;;;;;28.33;15.97;;;16.10;99.90;;;;;;5039367;28;20169;-78
2021/09/23 08:20:34;;;;;;;20.77;14.50;;;16.20;99.90;;;;;;5038051;28;20419;-79
2021/09/23 08:23:00;;;;;;;25.50;13.10;;;16.20;99.90;;;;;;5037470;28;20403;-78
2021/09/23 08:25:25;;;;;;;24.73;13.90;;;16.30;99.90;;;;;;5037571;28;20198;-78
2021/09/23 08:27:51;;;;;;;24.33;14.80;;;16.50;99.90;;;;;;5034367;28;20797;-77
2021/09/23 08:30:16;;;;;;;24.00;13.90;;;16.50;99.90;;;;;;5018106;28;20696;-79
2021/09/23 08:32:42;;;;;;;25.90;14.27;;;16.50;99.90;;;;;;5018194;28;20174;-79
2021/09/23 08:35:08;;;;;;;21.30;14.03;;;16.50;99.90;;;;;;5027542;28;20205;-79
2021/09/23 08:37:35;;;;;;;21.17;12.80;;;16.40;99.90;;;;;;5022893;28;20650;-78
2021/09/23 08:40:01;;;;;;;30.73;14.47;;;16.40;99.90;;;;;;5018371;28;20406;-79
2021/09/23 08:42:28;;;;;;;18.00;12.40;;;16.40;99.90;;;;;;5026238;28;20428;-80
2021/09/23 08:44:56;;;;;;;27.23;13.27;;;16.40;99.90;;;;;;5040787;28;20412;-78
2021/09/23 08:47:23;;;;;;;17.70;11.13;;;16.50;99.90;;;;;;5038710;28;20489;-77
2021/09/23 08:49:48;;;;;;;16.00;10.30;;;16.50;99.90;;;;;;5037268;28;20412;-77
2021/09/23 08:52:14;;;;;;;22.30;11.87;;;16.50;99.90;;;;;;5032834;28;20476;-76
2021/09/23 08:54:40;;;;;;;15.40;10.33;;;16.50;99.90;;;;;;5048149;28;20554;-77
2021/09/23 08:57:06;;;;;;;16.30;9.30;;;16.60;99.90;;;;;;5034207;28;20232;-78
2021/09/23 08:59:32;;;;;;;15.93;9.17;;;16.50;99.90;;;;;;5025545;28;20166;-77
2021/09/23 09:01:59;;;;;;;17.57;10.33;;;16.50;99.90;;;;;;5016433;28;20425;-78
2021/09/23 09:04:34;;;;;;;19.80;11.10;;;16.60;99.90;;;;;;5033693;28;20177;-78
2021/09/23 09:07:02;;;;;;;16.23;10.03;;;16.50;99.90;;;;;;5037366;28;20459;-77
2021/09/23 09:09:29;;;;;;;15.07;9.97;;;16.60;99.90;;;;;;5037207;28;20409;-78
2021/09/23 09:11:56;;;;;;;19.00;10.20;;;16.60;99.90;;;;;;5018034;28;20413;-79
2021/09/23 09:14:24;;;;;;;15.67;8.93;;;16.70;99.90;;;;;;5017796;28;20753;-79
2021/09/23 09:17:06;;;;;;;17.97;9.50;;;16.80;99.90;;;;;;5036984;28;20462;-79
2021/09/23 09:19:48;;;;;;;17.00;9.23;;;16.90;99.90;;;;;;5019084;28;20431;-78
2021/09/23 09:22:20;;;;;;;18.33;9.13;;;16.90;99.90;;;;;;5019905;28;20425;-79
2021/09/23 09:24:57;;;;;;;16.07;9.43;;;16.80;99.90;;;;;;5022604;28;20997;-78
2021/09/23 09:27:44;;;;;;;14.40;9.07;;;16.80;99.90;;;;;;5035368;28;20455;-78
2021/09/23 09:30:22;;;;;;;13.20;8.37;;;16.80;99.90;;;;;;5027439;28;20497;-77
2021/09/23 09:32:50;;;;;;;14.03;9.00;;;16.90;99.90;;;;;;5026019;28;20428;-78
2021/09/23 09:35:19;;;;;;;20.30;9.93;;;16.90;99.90;;;;;;5034253;28;20772;-78
2021/09/23 09:37:47;;;;;;;13.27;8.53;;;17.10;99.90;;;;;;5034891;28;20432;-77
2021/09/23 09:40:16;;;;;;;15.00;9.90;;;17.10;99.90;;;;;;5025531;28;20418;-78
2021/09/23 09:42:44;;;;;;;11.40;7.70;;;17.10;99.90;;;;;;5035264;28;20410;-78
2021/09/23 09:45:15;;;;;;;11.03;8.30;;;17.10;99.90;;;;;;5035095;28;20440;-79
2021/09/23 09:47:42;;;;;;;14.50;7.63;;;17.20;99.90;;;;;;5035982;28;20413;-78
2021/09/23 09:50:15;;;;;;;18.83;10.27;;;17.30;99.90;;;;;;5035362;28;20442;-78
2021/09/23 09:52:48;;;;;;;13.13;7.80;;;17.40;99.90;;;;;;5036181;28;20642;-79
2021/09/23 09:55:14;;;;;;;15.67;10.40;;;17.40;99.90;;;;;;5032548;28;20875;-78
2021/09/23 09:57:50;;;;;;;11.23;7.87;;;17.50;99.90;;;;;;5016962;28;20416;-78
2021/09/23 10:00:17;;;;;;;12.83;7.67;;;17.50;99.90;;;;;;5015353;28;20411;-78
2021/09/23 10:02:44;;;;;;;13.60;8.47;;;17.50;99.90;;;;;;5014261;28;20436;-78
2021/09/23 10:05:15;;;;;;;12.97;7.67;;;17.40;99.90;;;;;;5015316;28;20444;-78
2021/09/23 10:07:44;;;;;;;11.80;7.30;;;17.30;99.90;;;;;;5015414;28;20517;-79
2021/09/23 10:10:11;;;;;;;14.57;8.33;;;17.40;99.90;;;;;;5033355;28;20463;-79
2021/09/23 10:12:40;;;;;;;12.90;8.30;;;17.50;99.90;;;;;;5035115;28;20421;-79
2021/09/23 10:15:07;;;;;;;17.60;8.63;;;17.20;99.90;;;;;;5031591;28;20508;-78
2021/09/23 10:17:34;;;;;;;15.47;8.90;;;17.70;99.90;;;;;;5034093;28;20519;-79
2021/09/23 10:20:06;;;;;;;12.23;8.17;;;17.80;99.90;;;;;;5036397;28;20468;-80
2021/09/23 10:22:36;;;;;;;14.33;7.60;;;17.90;99.90;;;;;;5029849;28;20855;-80
2021/09/23 10:25:05;;;;;;;13.27;7.67;;;18.00;99.90;;;;;;5024500;28;20481;-78
2021/09/23 10:30:18;;;;;;;14.57;8.13;;;18.10;99.90;;;;;;5021304;28;20519;-78
2021/09/23 10:32:44;;;;;;;16.90;7.53;;;18.00;99.90;;;;;;5033987;28;20473;-79
2021/09/23 10:35:13;;;;;;;11.80;7.63;;;18.00;99.90;;;;;;5026541;28;20449;-78
2021/09/23 10:37:40;;;;;;;10.73;6.90;;;18.00;99.90;;;;;;5034230;28;20856;-79
2021/09/23 10:40:07;;;;;;;11.77;7.57;;;18.10;99.90;;;;;;5022045;28;20428;-79
2021/09/23 10:42:33;;;;;;;11.60;6.57;;;18.10;99.90;;;;;;5006926;28;20461;-79
2021/09/23 10:45:05;;;;;;;13.07;7.80;;;18.20;99.90;;;;;;5033253;28;20443;-80
2021/09/23 10:47:35;;;;;;;14.00;8.10;;;18.20;99.90;;;;;;5033826;28;20906;-78
2021/09/23 10:50:05;;;;;;;12.93;7.63;;;18.20;99.90;;;;;;5034445;28;20426;-78
2021/09/23 10:52:35;;;;;;;8.53;5.97;;;18.20;99.90;;;;;;5032277;28;20419;-79
2021/09/23 10:55:02;;;;;;;11.30;5.70;;;18.20;99.90;;;;;;5036274;28;20890;-78
2021/09/23 10:57:29;;;;;;;9.60;6.60;;;18.20;99.90;;;;;;5034470;28;20493;-78
2021/09/23 10:59:56;;;;;;;10.27;6.30;;;18.20;99.90;;;;;;5025271;28;20438;-77
2021/09/23 11:02:27;;;;;;;9.00;6.07;;;17.40;99.90;;;;;;5032419;28;20451;-78
2021/09/23 11:04:59;;;;;;;9.33;5.97;;;18.30;99.90;;;;;;5031217;28;20424;-78
2021/09/23 11:07:29;;;;;;;12.43;6.53;;;18.40;99.90;;;;;;5032558;28;20443;-79
2021/09/23 11:10:09;;;;;;;8.93;5.40;;;18.40;99.90;;;;;;5035808;28;20442;-78
2021/09/23 11:12:36;;;;;;;7.60;5.43;;;18.40;99.90;;;;;;5018078;28;20431;-79
2021/09/23 11:15:03;;;;;;;8.73;6.40;;;18.50;99.90;;;;;;5019723;28;20451;-79
2021/09/23 11:17:30;;;;;;;9.83;5.80;;;18.50;99.90;;;;;;5030077;28;20461;-79
2021/09/23 11:20:05;;;;;;;7.90;5.10;;;18.60;99.90;;;;;;5034644;28;20416;-78
2021/09/23 11:22:42;;;;;;;6.97;5.20;;;18.60;99.90;;;;;;5035175;28;20423;-80
2021/09/23 11:25:14;;;;;;;8.47;5.83;;;18.60;99.90;;;;;;5033109;28;21033;-79
2021/09/23 11:27:41;;;;;;;7.70;4.80;;;18.60;99.90;;;;;;5035513;28;20404;-79
2021/09/23 11:30:11;;;;;;;8.13;4.40;;;18.70;99.90;;;;;;5035320;28;20423;-80
2021/09/23 11:32:53;;;;;;;8.73;4.83;;;18.70;99.90;;;;;;5036120;28;20472;-80
2021/09/23 11:35:22;;;;;;;6.70;4.20;;;18.80;99.90;;;;;;5018596;28;20960;-79
2021/09/23 11:37:49;;;;;;;7.83;5.03;;;18.90;99.90;;;;;;5034485;28;20412;-79
2021/09/23 11:40:27;;;;;;;7.23;4.83;;;18.90;99.90;;;;;;5033542;28;20499;-79
2021/09/23 11:42:53;;;;;;;5.07;4.10;;;18.80;99.90;;;;;;5035015;28;20406;-80
2021/09/23 11:45:26;;;;;;;6.63;4.87;;;18.80;99.90;;;;;;5033921;28;20526;-79
2021/09/23 11:47:54;;;;;;;5.97;4.27;;;18.80;99.90;;;;;;5017543;28;20411;-79
2021/09/23 11:50:43;;;;;;;7.70;3.97;;;18.80;99.90;;;;;;5034700;28;20484;-79
2021/09/23 11:53:12;;;;;;;4.33;3.07;;;;;;;;;;5034290;28;20408;-79
2021/09/23 11:55:41;;;;;;;6.47;3.67;;;18.80;99.90;;;;;;5033389;28;20546;-79
2021/09/23 11:58:12;;;;;;;8.30;3.80;;;18.80;99.90;;;;;;5033277;28;20465;-79
2021/09/23 12:00:41;;;;;;;4.50;3.07;;;18.90;99.90;;;;;;5032898;28;20957;-79
2021/09/23 12:03:07;;;;;;;5.10;3.53;;;19.00;99.90;;;;;;5032751;28;20408;-79
2021/09/23 12:05:33;;;;;;;4.50;3.33;;;19.00;99.90;;;;;;5016595;28;20432;-78
2021/09/23 12:08:08;;;;;;;4.47;2.80;;;19.00;99.90;;;;;;5032524;28;20919;-79
2021/09/23 12:10:46;;;;;;;4.00;3.13;;;19.00;99.90;;;;;;5032604;28;20438;-79
2021/09/23 12:13:17;;;;;;;4.20;3.23;;;19.00;99.90;;;;;;5015067;28;20443;-78
2021/09/23 12:15:53;;;;;;;4.20;2.70;;;19.00;99.90;;;;;;5040975;28;20538;-79
2021/09/23 12:18:21;;;;;;;4.97;3.20;;;19.00;99.90;;;;;;5049458;28;20406;-79
2021/09/23 12:20:50;;;;;;;4.40;2.53;;;19.10;99.90;;;;;;5040341;28;20408;-79
2021/09/23 12:23:30;;;;;;;3.40;2.30;;;19.00;99.90;;;;;;5034618;28;20466;-79
2021/09/23 12:26:09;;;;;;;4.47;2.70;;;19.10;99.90;;;;;;5034528;28;20962;-80
2021/09/23 12:28:49;;;;;;;4.43;2.57;;;19.10;99.90;;;;;;5038194;28;20408;-77
2021/09/23 12:31:16;;;;;;;4.27;2.20;;;19.10;99.90;;;;;;5036697;28;20840;-78
2021/09/23 12:33:55;;;;;;;2.73;2.13;;;19.10;99.90;;;;;;5036642;28;20420;-79
2021/09/23 12:36:47;;;;;;;3.27;2.30;;;19.10;99.90;;;;;;5036676;28;20455;-78
2021/09/23 12:39:25;;;;;;;2.27;1.87;;;19.10;99.90;;;;;;5038310;28;20515;-80